Mattamiscontis Township, Maine
Current Conditions -  °F | °C
As of 5:53 PM on Thursday 20 Nov 2014 (Local Time) from KMLT Reporting Station
Few Clouds Few Clouds  
Wind Chill: 28°   Ceiling: Unl
Heat Index: 28°   Visibility: 10mi
Dew Point: 20°   Wind: 0mph
Humidity: 72%   Direction: NA
Pressure: 29.71"   Gusts: NA
Location:  45.3335°N, 68.5089°W
Report Text: KMLT 202253Z AUTO 00000KT 10SM FEW065 M02/M07 A2971 RMK AO2 SLP072 T10221067
Loading
Personal Weather Stations






























Interactive Weather Map New forecast layout! Learn more

10-Day Weather Forecast

Advertisements
Track Severe Weather on mobile